Time;durP1;ratioP1;P1;durP2;ratioP2;P2;SDS_P1;SDS_P2;PMS_P1;PMS_P2;Temp;Humidity;BMP_temperature;BMP_pressure;BME280_temperature;BME280_humidity;BME280_pressure;Samples;Min_cycle;Max_cycle;Signal;HPM_P1;HPM_P2
2021/11/26 00:02:02;;;;;;;20.73;8.68;;;;;;;;;;5059371;28;20029;-58
2021/11/26 00:04:28;;;;;;;22.63;8.95;;;;;;;;;;5056134;28;20489;-56
2021/11/26 00:06:53;;;;;;;23.10;9.68;;;;;;;;;;5061149;28;20033;-57
2021/11/26 00:09:19;;;;;;;27.65;9.73;;;;;;;;;;5053041;28;20030;-56
2021/11/26 00:11:46;;;;;;;23.67;9.75;;;;;;;;;;5060785;28;20488;-58
2021/11/26 00:14:33;;;;;;;23.83;9.60;;;;;;;;;;5061862;28;20115;-58
2021/11/26 00:35:22;;;;;;;17.70;7.72;;;;;;;;;;4345461;28;20064;-56
2021/11/26 00:37:48;;;;;;;16.95;8.02;;;;;;;;;;5048582;28;20116;-57
2021/11/26 00:40:15;;;;;;;23.52;9.13;;;;;;;;;;5054969;28;20052;-56
2021/11/26 00:42:42;;;;;;;22.70;8.93;;;;;;;;;;5050277;28;20026;-57
2021/11/26 00:45:12;;;;;;;19.83;7.75;;;;;;;;;;5055341;28;20032;-58
2021/11/26 00:47:38;;;;;;;18.52;8.25;;;;;;;;;;5054724;28;20084;-58
2021/11/26 00:50:04;;;;;;;25.40;8.65;;;;;;;;;;5047717;28;20108;-58
2021/11/26 00:52:30;;;;;;;19.17;7.80;;;;;;;;;;5055263;28;20021;-58
2021/11/26 00:54:56;;;;;;;20.75;8.18;;;;;;;;;;5055083;28;20075;-56
2021/11/26 00:57:22;;;;;;;18.77;7.65;;;;;;;;;;5051335;28;20444;-57
2021/11/26 00:59:48;;;;;;;18.85;7.32;;;;;;;;;;5048367;28;20029;-56
2021/11/26 01:02:15;;;;;;;18.38;7.85;;;;;;;;;;5048082;28;20025;-52
2021/11/26 01:04:41;;;;;;;18.00;7.93;;;;;;;;;;5053316;28;20028;-57
2021/11/26 01:07:07;;;;;;;15.77;7.50;;;;;;;;;;5050788;28;20142;-57
2021/11/26 01:09:33;;;;;;;23.40;8.20;;;;;;;;;;5049696;28;20049;-56
2021/11/26 01:11:59;;;;;;;20.33;7.82;;;;;;;;;;5043281;28;20029;-57
2021/11/26 01:14:26;;;;;;;15.45;7.45;;;;;;;;;;5053420;28;20036;-58
2021/11/26 01:16:52;;;;;;;19.95;8.20;;;;;;;;;;5051942;28;20044;-57
2021/11/26 01:19:19;;;;;;;17.63;8.00;;;;;;;;;;5048088;28;20112;-58
2021/11/26 01:21:45;;;;;;;18.33;7.95;;;;;;;;;;5054396;28;20458;-57
2021/11/26 01:24:11;;;;;;;18.60;8.32;;;;;;;;;;5050526;28;20418;-57
2021/11/26 01:26:37;;;;;;;26.38;8.40;;;;;;;;;;5048489;28;20048;-55
2021/11/26 01:29:03;;;;;;;19.27;7.03;;;;;;;;;;5046123;28;20036;-56
2021/11/26 01:31:29;;;;;;;19.23;7.60;;;;;;;;;;5055330;28;20021;-55
2021/11/26 01:33:56;;;;;;;17.33;7.40;;;;;;;;;;5042018;28;20021;-57
2021/11/26 01:36:22;;;;;;;22.95;7.40;;;;;;;;;;5044207;28;20021;-57
2021/11/26 01:38:48;;;;;;;16.75;7.45;;;;;;;;;;5054565;28;20060;-57
2021/11/26 01:41:14;;;;;;;20.58;7.28;;;;;;;;;;5054107;28;20107;-58
2021/11/26 01:43:40;;;;;;;18.55;7.43;;;;;;;;;;5054394;28;20029;-57
2021/11/26 01:46:08;;;;;;;15.85;7.35;;;;;;;;;;5053564;28;20075;-58
2021/11/26 01:48:35;;;;;;;17.75;7.85;;;;;;;;;;5045514;28;20036;-57
2021/11/26 01:51:01;;;;;;;20.70;8.32;;;;;;;;;;5050526;28;20106;-56
2021/11/26 01:53:27;;;;;;;23.42;8.10;;;;;;;;;;5041988;28;20115;-58
2021/11/26 01:55:53;;;;;;;20.80;7.78;;;;;;;;;;5053601;28;20104;-58
2021/11/26 01:58:20;;;;;;;20.15;7.60;;;;;;;;;;5052018;28;20029;-56
2021/11/26 02:00:47;;;;;;;19.60;8.15;;;;;;;;;;5055318;28;20123;-57
2021/11/26 02:03:13;;;;;;;20.20;8.23;;;;;;;;;;5047298;28;20101;-57
2021/11/26 02:05:40;;;;;;;22.17;8.68;;;;;;;;;;5049745;28;20116;-57
2021/11/26 02:08:07;;;;;;;22.45;7.68;;;;;;;;;;5049631;28;20036;-55
2021/11/26 02:10:33;;;;;;;20.15;8.10;;;;;;;;;;5042309;28;20033;-56
2021/11/26 02:12:59;;;;;;;22.95;8.80;;;;;;;;;;5045999;28;20116;-57
2021/11/26 02:15:26;;;;;;;22.35;7.68;;;;;;;;;;5049357;28;20473;-57
2021/11/26 02:17:53;;;;;;;23.45;8.77;;;;;;;;;;5048396;28;20021;-56
2021/11/26 02:20:20;;;;;;;21.63;8.52;;;;;;;;;;5050633;28;20357;-57
2021/11/26 02:22:47;;;;;;;22.98;9.13;;;;;;;;;;5046028;28;20017;-57
2021/11/26 02:25:14;;;;;;;19.38;8.10;;;;;;;;;;5052436;28;20481;-52
2021/11/26 02:27:40;;;;;;;18.30;8.40;;;;;;;;;;5047720;28;20033;-54
2021/11/26 02:30:14;;;;;;;23.80;8.80;;;;;;;;;;5049987;28;20071;-54
2021/11/26 02:32:40;;;;;;;23.27;9.05;;;;;;;;;;5049316;28;20376;-53
2021/11/26 02:35:06;;;;;;;19.80;8.90;;;;;;;;;;5049154;28;20106;-54
2021/11/26 02:37:32;;;;;;;19.83;8.20;;;;;;;;;;5050130;28;20159;-55
2021/11/26 02:39:58;;;;;;;21.00;7.93;;;;;;;;;;5049700;28;20017;-53
2021/11/26 02:42:25;;;;;;;25.38;8.98;;;;;;;;;;5045312;28;20105;-54
2021/11/26 02:44:51;;;;;;;16.17;8.30;;;;;;;;;;5051176;28;20091;-56
2021/11/26 02:47:17;;;;;;;18.02;8.25;;;;;;;;;;5048188;28;20029;-57
2021/11/26 02:49:43;;;;;;;27.95;9.32;;;;;;;;;;5051503;28;20040;-57
2021/11/26 02:52:09;;;;;;;20.67;8.98;;;;;;;;;;5050275;28;20048;-57
2021/11/26 02:54:35;;;;;;;23.40;8.27;;;;;;;;;;5043259;28;20033;-57
2021/11/26 02:57:01;;;;;;;24.92;9.07;;;;;;;;;;5049808;28;20028;-55
2021/11/26 02:59:27;;;;;;;19.23;7.72;;;;;;;;;;5046676;28;20111;-57
2021/11/26 03:01:53;;;;;;;24.20;9.32;;;;;;;;;;5050949;28;20052;-57
2021/11/26 03:04:19;;;;;;;20.08;8.85;;;;;;;;;;5049175;28;20032;-57
2021/11/26 03:06:45;;;;;;;20.58;8.93;;;;;;;;;;5051441;28;20111;-56
2021/11/26 03:09:11;;;;;;;20.50;8.70;;;;;;;;;;5047183;28;20029;-54
2021/11/26 03:11:37;;;;;;;27.38;9.65;;;;;;;;;;5051549;28;20036;-57
2021/11/26 03:14:03;;;;;;;20.13;8.68;;;;;;;;;;5047609;28;20110;-55
2021/11/26 03:16:29;;;;;;;22.40;8.48;;;;;;;;;;5050270;28;20021;-53
2021/11/26 03:18:55;;;;;;;15.05;7.47;;;;;;;;;;5050637;28;20047;-55
2021/11/26 03:21:21;;;;;;;19.65;8.35;;;;;;;;;;5051652;28;20091;-52
2021/11/26 03:23:47;;;;;;;18.20;7.63;;;;;;;;;;5049671;28;20025;-52
2021/11/26 03:26:13;;;;;;;25.88;9.10;;;;;;;;;;5047564;28;20082;-53
2021/11/26 03:28:39;;;;;;;18.40;8.65;;;;;;;;;;5038210;28;20040;-55
2021/11/26 03:31:05;;;;;;;22.45;8.80;;;;;;;;;;5045108;28;20025;-56
2021/11/26 03:33:31;;;;;;;25.55;9.02;;;;;;;;;;5042154;28;20090;-57
2021/11/26 03:35:57;;;;;;;19.20;8.10;;;;;;;;;;5049748;28;20045;-54
2021/11/26 03:38:23;;;;;;;24.75;8.70;;;;;;;;;;5040451;28;20470;-56
2021/11/26 03:40:49;;;;;;;23.40;8.20;;;;;;;;;;5048311;28;20090;-57
2021/11/26 03:43:15;;;;;;;20.13;8.20;;;;;;;;;;5035982;28;20033;-57
2021/11/26 03:45:41;;;;;;;19.02;7.78;;;;;;;;;;5044687;28;20041;-55
2021/11/26 03:48:07;;;;;;;19.88;7.30;;;;;;;;;;5042148;28;20028;-57
2021/11/26 03:50:33;;;;;;;14.43;7.30;;;;;;;;;;5048957;28;20033;-57
2021/11/26 03:52:59;;;;;;;15.25;7.00;;;;;;;;;;5046120;28;20033;-57
2021/11/26 03:55:27;;;;;;;14.75;6.57;;;;;;;;;;5045004;28;20021;-57
2021/11/26 03:57:54;;;;;;;14.88;5.80;;;;;;;;;;5037136;28;20032;-57
2021/11/26 04:00:20;;;;;;;14.13;6.72;;;;;;;;;;5048848;28;20052;-56
2021/11/26 04:02:47;;;;;;;13.90;5.95;;;;;;;;;;5046372;28;20495;-54
2021/11/26 04:05:13;;;;;;;21.38;7.10;;;;;;;;;;5049964;28;20381;-54
2021/11/26 04:07:39;;;;;;;16.23;6.18;;;;;;;;;;5053214;28;20473;-55
2021/11/26 04:10:06;;;;;;;13.38;5.45;;;;;;;;;;5054705;28;20029;-56
2021/11/26 04:12:32;;;;;;;15.23;6.20;;;;;;;;;;5048406;28;20404;-56
2021/11/26 04:14:58;;;;;;;16.63;6.80;;;;;;;;;;5051041;28;20029;-52
2021/11/26 04:17:25;;;;;;;21.25;7.80;;;;;;;;;;5051879;28;20083;-55
2021/11/26 04:19:51;;;;;;;21.58;6.15;;;;;;;;;;5044008;28;20108;-57
2021/11/26 04:22:17;;;;;;;15.50;6.65;;;;;;;;;;5048382;28;20373;-55
2021/11/26 04:24:43;;;;;;;14.25;5.97;;;;;;;;;;5046974;28;20024;-54
2021/11/26 04:27:09;;;;;;;18.77;7.25;;;;;;;;;;5051413;28;20029;-54
2021/11/26 04:29:35;;;;;;;19.90;7.45;;;;;;;;;;5047752;28;20099;-57
2021/11/26 04:32:01;;;;;;;17.05;7.43;;;;;;;;;;5048293;28;21581;-57
2021/11/26 04:34:27;;;;;;;18.77;6.53;;;;;;;;;;5051157;28;20127;-57
2021/11/26 04:36:53;;;;;;;19.58;7.57;;;;;;;;;;5053901;28;20104;-55
2021/11/26 04:39:19;;;;;;;18.52;7.35;;;;;;;;;;5053493;28;20167;-54
2021/11/26 04:41:45;;;;;;;24.38;7.13;;;;;;;;;;5052734;28;20033;-56
2021/11/26 04:44:11;;;;;;;16.50;5.88;;;;;;;;;;5051863;28;20103;-57
2021/11/26 04:46:37;;;;;;;19.75;5.90;;;;;;;;;;5050262;28;20428;-56
2021/11/26 04:49:05;;;;;;;18.70;6.18;;;;;;;;;;5052890;28;20040;-57
2021/11/26 04:51:31;;;;;;;15.13;5.47;;;;;;;;;;5045543;28;20079;-56
2021/11/26 04:53:57;;;;;;;12.40;6.18;;;;;;;;;;5043569;28;20036;-56
2021/11/26 04:56:23;;;;;;;12.27;6.15;;;;;;;;;;5053815;28;20437;-57
2021/11/26 04:58:49;;;;;;;9.57;5.30;;;;;;;;;;5048115;28;20033;-53
2021/11/26 05:01:15;;;;;;;18.52;5.57;;;;;;;;;;5053811;28;20424;-55
2021/11/26 05:03:41;;;;;;;19.60;5.15;;;;;;;;;;5047625;28;20041;-57
2021/11/26 05:06:07;;;;;;;13.32;5.18;;;;;;;;;;5050124;28;20064;-56
2021/11/26 05:08:33;;;;;;;13.60;5.57;;;;;;;;;;5048585;28;20158;-52
2021/11/26 05:10:59;;;;;;;17.10;6.63;;;;;;;;;;5053224;28;20029;-52
2021/11/26 05:13:29;;;;;;;18.83;6.38;;;;;;;;;;5052512;28;20059;-57
2021/11/26 05:15:55;;;;;;;11.27;5.38;;;;;;;;;;5050944;28;20025;-57
2021/11/26 05:18:26;;;;;;;13.65;5.88;;;;;;;;;;5052517;28;20078;-56
2021/11/26 05:20:52;;;;;;;15.52;6.15;;;;;;;;;;5038275;28;20083;-57
2021/11/26 05:23:19;;;;;;;16.20;6.57;;;;;;;;;;5048134;28;20123;-57
2021/11/26 05:25:45;;;;;;;17.85;5.75;;;;;;;;;;5046579;28;22251;-56
2021/11/26 05:28:12;;;;;;;17.55;6.10;;;;;;;;;;5041540;28;20123;-57
2021/11/26 05:30:38;;;;;;;17.70;6.47;;;;;;;;;;5048492;28;20033;-56
2021/11/26 05:33:04;;;;;;;14.18;5.80;;;;;;;;;;5049809;28;20031;-57
2021/11/26 05:35:31;;;;;;;14.95;6.35;;;;;;;;;;5050887;28;20127;-56
2021/11/26 05:37:58;;;;;;;17.58;7.32;;;;;;;;;;5045679;28;20052;-52
2021/11/26 05:40:24;;;;;;;19.08;7.47;;;;;;;;;;5054878;28;20453;-54
2021/11/26 05:42:50;;;;;;;19.77;7.53;;;;;;;;;;5045596;28;20033;-55
2021/11/26 05:45:17;;;;;;;15.88;7.20;;;;;;;;;;5042272;28;20118;-57
2021/11/26 05:47:43;;;;;;;19.00;7.65;;;;;;;;;;5042495;28;20553;-57
2021/11/26 05:50:12;;;;;;;14.80;6.10;;;;;;;;;;5047925;28;20116;-55
2021/11/26 05:52:38;;;;;;;20.70;6.90;;;;;;;;;;5048035;28;20111;-52
2021/11/26 05:55:05;;;;;;;16.63;6.93;;;;;;;;;;5051014;28;20480;-57
2021/11/26 05:57:32;;;;;;;16.90;7.10;;;;;;;;;;5050308;28;20032;-56
2021/11/26 05:59:58;;;;;;;17.73;7.22;;;;;;;;;;5054359;28;20040;-57
2021/11/26 06:02:24;;;;;;;16.83;7.18;;;;;;;;;;5053387;28;20025;-56
2021/11/26 06:04:50;;;;;;;16.75;6.53;;;;;;;;;;5049447;28;20485;-56
2021/11/26 06:07:16;;;;;;;22.13;6.65;;;;;;;;;;5052798;28;20032;-56
2021/11/26 06:09:42;;;;;;;21.85;5.97;;;;;;;;;;5049010;28;20401;-57
2021/11/26 06:12:10;;;;;;;16.38;6.15;;;;;;;;;;5051992;28;20075;-56
2021/11/26 06:14:37;;;;;;;14.93;5.97;;;;;;;;;;5046903;28;20024;-57
2021/11/26 06:17:04;;;;;;;14.07;5.35;;;;;;;;;;5046520;28;20456;-53
2021/11/26 06:19:30;;;;;;;17.05;6.70;;;;;;;;;;5046901;28;20069;-55
2021/11/26 06:21:56;;;;;;;15.15;6.30;;;;;;;;;;5054670;28;20029;-57
2021/11/26 06:24:22;;;;;;;18.65;5.80;;;;;;;;;;5047416;28;20527;-57
2021/11/26 06:26:48;;;;;;;15.90;5.45;;;;;;;;;;5051903;28;20038;-55
2021/11/26 06:29:14;;;;;;;13.25;5.65;;;;;;;;;;5043568;28;20043;-52
2021/11/26 06:31:40;;;;;;;16.15;6.22;;;;;;;;;;5044437;28;20128;-57
2021/11/26 06:34:06;;;;;;;17.08;6.57;;;;;;;;;;5051122;28;20044;-57
2021/11/26 06:36:33;;;;;;;16.20;5.72;;;;;;;;;;5051221;28;20028;-52
2021/11/26 06:38:59;;;;;;;12.40;5.75;;;;;;;;;;5041655;28;20033;-57
2021/11/26 06:41:25;;;;;;;12.57;5.45;;;;;;;;;;5044907;28;20033;-53
2021/11/26 06:43:51;;;;;;;11.80;5.32;;;;;;;;;;5038724;28;20029;-57
2021/11/26 06:46:17;;;;;;;16.20;5.95;;;;;;;;;;5047443;28;20413;-57
2021/11/26 06:48:43;;;;;;;21.48;6.15;;;;;;;;;;5052475;28;20174;-56
2021/11/26 06:51:09;;;;;;;15.85;5.75;;;;;;;;;;5038673;28;20033;-57
2021/11/26 06:53:35;;;;;;;10.93;5.43;;;;;;;;;;5053564;28;20033;-57
2021/11/26 06:56:01;;;;;;;12.48;5.38;;;;;;;;;;5050999;28;20105;-55
2021/11/26 06:58:27;;;;;;;18.88;6.68;;;;;;;;;;5053276;28;20111;-57
2021/11/26 07:00:53;;;;;;;15.35;5.47;;;;;;;;;;5052637;28;20108;-56
2021/11/26 07:03:19;;;;;;;14.63;6.07;;;;;;;;;;5048957;28;20059;-57
2021/11/26 07:05:45;;;;;;;13.52;5.70;;;;;;;;;;5053438;28;20056;-55
2021/11/26 07:08:11;;;;;;;13.52;5.05;;;;;;;;;;5056730;28;20098;-52
2021/11/26 07:10:37;;;;;;;17.17;6.40;;;;;;;;;;5047327;28;20025;-57
2021/11/26 07:13:03;;;;;;;13.38;5.60;;;;;;;;;;5044764;28;20358;-54
2021/11/26 07:15:29;;;;;;;16.35;6.47;;;;;;;;;;5042499;28;20053;-53
2021/11/26 07:17:55;;;;;;;15.38;5.63;;;;;;;;;;5043507;28;20037;-55
2021/11/26 07:20:21;;;;;;;13.73;4.32;;;;;;;;;;5048886;28;20728;-56
2021/11/26 07:22:48;;;;;;;13.27;5.82;;;;;;;;;;5046582;28;20112;-52
2021/11/26 07:25:14;;;;;;;15.50;5.65;;;;;;;;;;5051544;28;20029;-54
2021/11/26 07:27:40;;;;;;;13.43;5.03;;;;;;;;;;5050142;28;20029;-52
2021/11/26 07:30:07;;;;;;;13.10;5.63;;;;;;;;;;5041814;28;20026;-51
2021/11/26 07:32:33;;;;;;;15.23;5.22;;;;;;;;;;5036988;28;20507;-56
2021/11/26 07:34:59;;;;;;;7.53;4.10;;;;;;;;;;5045817;28;20060;-56
2021/11/26 07:37:25;;;;;;;13.80;5.50;;;;;;;;;;5047897;28;20025;-57
2021/11/26 07:39:52;;;;;;;14.50;5.68;;;;;;;;;;5042723;28;20036;-56
2021/11/26 07:42:18;;;;;;;13.63;5.20;;;;;;;;;;5050407;28;20479;-56
2021/11/26 07:44:44;;;;;;;16.30;4.45;;;;;;;;;;5050023;28;20385;-57
2021/11/26 07:47:13;;;;;;;17.55;5.00;;;;;;;;;;5050206;28;20037;-55
2021/11/26 07:49:39;;;;;;;9.93;4.57;;;;;;;;;;5053100;28;20087;-57
2021/11/26 07:52:07;;;;;;;14.43;4.68;;;;;;;;;;5048067;28;20028;-57
2021/11/26 07:54:33;;;;;;;12.98;4.70;;;;;;;;;;5053102;28;20461;-56
2021/11/26 07:57:00;;;;;;;12.55;5.13;;;;;;;;;;5047139;28;20108;-55
2021/11/26 07:59:26;;;;;;;15.48;5.80;;;;;;;;;;5050839;28;20025;-57
2021/11/26 08:01:52;;;;;;;20.20;6.15;;;;;;;;;;5047830;28;20060;-57
2021/11/26 08:04:20;;;;;;;10.20;4.32;;;;;;;;;;5054879;28;20052;-52
2021/11/26 08:06:46;;;;;;;10.00;4.00;;;;;;;;;;5054518;28;20025;-57
2021/11/26 08:09:13;;;;;;;14.18;5.50;;;;;;;;;;5056696;28;20163;-53
2021/11/26 08:11:39;;;;;;;14.40;5.10;;;;;;;;;;5053016;28;20405;-54
2021/11/26 08:14:05;;;;;;;10.05;4.65;;;;;;;;;;5055141;28;20033;-54
2021/11/26 08:16:31;;;;;;;14.75;5.43;;;;;;;;;;5053479;28;20094;-55
2021/11/26 08:18:57;;;;;;;17.98;5.05;;;;;;;;;;5051300;28;20423;-57
2021/11/26 08:21:23;;;;;;;15.23;5.78;;;;;;;;;;5053054;28;20094;-57
2021/11/26 08:23:49;;;;;;;13.75;5.55;;;;;;;;;;5050871;28;20033;-57
2021/11/26 08:26:15;;;;;;;11.05;5.10;;;;;;;;;;5049524;28;20138;-54
2021/11/26 08:28:41;;;;;;;14.13;5.53;;;;;;;;;;5052320;28;20064;-56
2021/11/26 08:31:07;;;;;;;16.20;5.70;;;;;;;;;;5050985;28;20031;-55
2021/11/26 08:33:33;;;;;;;13.95;4.70;;;;;;;;;;5053914;28;20052;-57
2021/11/26 08:36:00;;;;;;;16.30;5.50;;;;;;;;;;5050881;28;20129;-54
2021/11/26 08:38:26;;;;;;;15.05;5.80;;;;;;;;;;5052156;28;20033;-54
2021/11/26 08:40:52;;;;;;;11.73;5.32;;;;;;;;;;5046843;28;20074;-55
2021/11/26 08:43:18;;;;;;;13.60;5.07;;;;;;;;;;5047222;28;20037;-57
2021/11/26 08:45:44;;;;;;;12.15;5.22;;;;;;;;;;5053812;28;20057;-57
2021/11/26 08:48:11;;;;;;;12.07;5.35;;;;;;;;;;5051548;28;20036;-57
2021/11/26 08:50:37;;;;;;;12.38;4.78;;;;;;;;;;5046602;28;20432;-57
2021/11/26 08:53:05;;;;;;;13.95;4.70;;;;;;;;;;5053891;28;20112;-57
2021/11/26 08:55:31;;;;;;;12.98;5.18;;;;;;;;;;5050300;28;20524;-57
2021/11/26 08:57:58;;;;;;;13.13;5.30;;;;;;;;;;5053568;28;20102;-55
2021/11/26 09:00:28;;;;;;;12.75;5.20;;;;;;;;;;5054761;28;20163;-55
2021/11/26 09:02:55;;;;;;;16.90;4.93;;;;;;;;;;5055986;28;20108;-54
2021/11/26 09:05:21;;;;;;;15.38;4.72;;;;;;;;;;5045208;28;20454;-57
2021/11/26 09:07:47;;;;;;;9.75;4.63;;;;;;;;;;5049380;28;20087;-57
2021/11/26 09:10:14;;;;;;;10.63;4.68;;;;;;;;;;5053857;28;20033;-57
2021/11/26 09:12:40;;;;;;;11.45;4.78;;;;;;;;;;5052756;28;20075;-56
2021/11/26 09:15:06;;;;;;;13.45;4.65;;;;;;;;;;5045704;28;20520;-57
2021/11/26 09:17:32;;;;;;;11.13;5.22;;;;;;;;;;5050085;28;20075;-57
2021/11/26 09:19:58;;;;;;;12.18;4.72;;;;;;;;;;5046484;28;20064;-55
2021/11/26 09:22:25;;;;;;;12.02;4.72;;;;;;;;;;5054939;28;20107;-54
2021/11/26 09:24:52;;;;;;;12.10;5.00;;;;;;;;;;5050390;28;20025;-54
2021/11/26 09:27:17;;;;;;;14.30;5.28;;;;;;;;;;5049577;28;20045;-55
2021/11/26 09:29:45;;;;;;;13.10;5.63;;;;;;;;;;5054310;28;20068;-56
2021/11/26 09:32:13;;;;;;;12.68;5.60;;;;;;;;;;5053976;28;20040;-57
2021/11/26 09:34:40;;;;;;;11.57;5.32;;;;;;;;;;5051475;28;20045;-56
2021/11/26 09:37:06;;;;;;;11.05;5.03;;;;;;;;;;5048156;28;20021;-53
2021/11/26 09:39:32;;;;;;;13.10;5.72;;;;;;;;;;5055100;28;20047;-55
2021/11/26 09:41:58;;;;;;;11.25;4.93;;;;;;;;;;5051792;28;20034;-54
2021/11/26 09:44:25;;;;;;;13.43;5.28;;;;;;;;;;5052212;28;20104;-53
2021/11/26 09:46:54;;;;;;;14.35;5.00;;;;;;;;;;5045636;28;20025;-57
2021/11/26 09:49:20;;;;;;;12.05;5.00;;;;;;;;;;5044351;28;20021;-57
2021/11/26 09:51:47;;;;;;;13.02;5.07;;;;;;;;;;5048646;28;20103;-56
2021/11/26 09:54:13;;;;;;;13.45;5.43;;;;;;;;;;5053136;28;20029;-57
2021/11/26 09:56:39;;;;;;;11.00;5.90;;;;;;;;;;5046848;28;20032;-57
2021/11/26 09:59:05;;;;;;;11.38;5.00;;;;;;;;;;5047101;28;20031;-57
2021/11/26 10:01:31;;;;;;;12.60;5.20;;;;;;;;;;5054798;28;20032;-55
2021/11/26 10:03:57;;;;;;;7.88;4.57;;;;;;;;;;5052017;28;20045;-57
2021/11/26 10:06:37;;;;;;;14.57;5.50;;;;;;;;;;5064050;28;20033;-53
2021/11/26 10:09:03;;;;;;;11.00;4.55;;;;;;;;;;5057864;28;20567;-56
2021/11/26 10:11:30;;;;;;;12.25;5.00;;;;;;;;;;5060002;28;20021;-54
2021/11/26 10:13:56;;;;;;;12.88;5.30;;;;;;;;;;5041085;28;20028;-55
2021/11/26 10:16:23;;;;;;;10.20;4.68;;;;;;;;;;5042870;28;20588;-57
2021/11/26 10:18:50;;;;;;;12.02;5.07;;;;;;;;;;5046689;28;20036;-54
2021/11/26 10:21:16;;;;;;;11.57;5.03;;;;;;;;;;5050879;28;20032;-57
2021/11/26 10:23:44;;;;;;;12.23;4.95;;;;;;;;;;5046920;28;20518;-53
2021/11/26 10:26:13;;;;;;;11.27;5.18;;;;;;;;;;5042248;28;20029;-56
2021/11/26 10:28:40;;;;;;;11.98;5.03;;;;;;;;;;5038549;28;20040;-54
2021/11/26 10:31:06;;;;;;;12.27;4.90;;;;;;;;;;5051470;28;20453;-54
2021/11/26 10:33:34;;;;;;;9.15;4.25;;;;;;;;;;5050828;28;20032;-52
2021/11/26 10:36:01;;;;;;;12.18;4.63;;;;;;;;;;5052083;28;20119;-53
2021/11/26 10:38:34;;;;;;;18.45;4.95;;;;;;;;;;5051893;28;20425;-53
2021/11/26 10:41:04;;;;;;;15.68;5.35;;;;;;;;;;5052143;28;20029;-54
2021/11/26 10:49:09;;;;;;;9.65;4.88;;;;;;;;;;5051972;28;20440;-54
2021/11/26 10:59:40;;;;;;;13.48;6.00;;;;;;;;;;5051727;28;20044;-55
2021/11/26 11:02:07;;;;;;;17.63;6.35;;;;;;;;;;5043358;28;20032;-52
2021/11/26 11:04:34;;;;;;;11.93;5.80;;;;;;;;;;5049618;28;20093;-54
2021/11/26 11:07:01;;;;;;;16.90;7.18;;;;;;;;;;5064897;28;20052;-57
2021/11/26 11:09:27;;;;;;;17.55;7.00;;;;;;;;;;5067724;28;20028;-54
2021/11/26 11:11:55;;;;;;;14.88;7.38;;;;;;;;;;5060586;28;20104;-52
2021/11/26 11:14:24;;;;;;;16.88;6.95;;;;;;;;;;5066247;28;20032;-51
2021/11/26 11:16:52;;;;;;;18.08;7.20;;;;;;;;;;5050690;28;20408;-53
2021/11/26 11:19:18;;;;;;;14.70;7.13;;;;;;;;;;5052343;28;20479;-54
2021/11/26 11:21:45;;;;;;;12.68;6.38;;;;;;;;;;5053796;28;20040;-56
2021/11/26 11:24:12;;;;;;;18.13;7.10;;;;;;;;;;5053453;28;20105;-56
2021/11/26 11:26:45;;;;;;;15.90;6.95;;;;;;;;;;5054361;28;20095;-56
2021/11/26 11:29:11;;;;;;;17.50;6.50;;;;;;;;;;5053887;28;20029;-52
2021/11/26 11:31:40;;;;;;;15.07;6.45;;;;;;;;;;5055157;28;20032;-51
2021/11/26 11:34:06;;;;;;;11.32;6.35;;;;;;;;;;5054449;28;20128;-53
2021/11/26 11:36:36;;;;;;;19.08;6.97;;;;;;;;;;5057550;28;20074;-54
2021/11/26 11:39:03;;;;;;;14.52;6.60;;;;;;;;;;5055729;28;20071;-56
2021/11/26 11:41:30;;;;;;;16.52;7.35;;;;;;;;;;5060347;28;20063;-55
2021/11/26 11:43:56;;;;;;;14.35;6.22;;;;;;;;;;5054751;28;20031;-53
2021/11/26 11:46:22;;;;;;;12.93;5.07;;;;;;;;;;5060461;28;20028;-57
2021/11/26 11:48:49;;;;;;;11.65;5.45;;;;;;;;;;5056921;28;20469;-56
2021/11/26 11:51:29;;;;;;;13.65;5.75;;;;;;;;;;5063659;28;20027;-57
2021/11/26 11:54:08;;;;;;;11.63;5.00;;;;;;;;;;5059724;28;20104;-57
2021/11/26 11:56:45;;;;;;;12.27;4.78;;;;;;;;;;5056358;28;20369;-54
2021/11/26 11:59:11;;;;;;;10.23;4.78;;;;;;;;;;5060852;28;20029;-53
2021/11/26 12:01:44;;;;;;;8.50;4.30;;;;;;;;;;5046813;28;20134;-56
2021/11/26 12:04:15;;;;;;;8.88;4.40;;;;;;;;;;5055751;28;20155;-57
2021/11/26 12:06:42;;;;;;;10.75;4.50;;;;;;;;;;5058143;28;20496;-58
2021/11/26 12:09:19;;;;;;;9.55;4.95;;;;;;;;;;5064360;28;20036;-57
2021/11/26 12:11:45;;;;;;;8.38;4.13;;;;;;;;;;5060437;28;20068;-57
2021/11/26 12:14:12;;;;;;;11.75;4.78;;;;;;;;;;5060991;28;20416;-58
2021/11/26 12:16:48;;;;;;;8.77;4.20;;;;;;;;;;5050026;28;20086;-58
2021/11/26 12:19:18;;;;;;;10.63;4.47;;;;;;;;;;5046621;28;20044;-58
2021/11/26 12:21:46;;;;;;;9.73;4.30;;;;;;;;;;5042432;28;20057;-58
2021/11/26 12:24:18;;;;;;;9.18;4.40;;;;;;;;;;5053942;28;20031;-58
2021/11/26 12:26:50;;;;;;;8.68;4.15;;;;;;;;;;5053782;28;20022;-58
2021/11/26 12:29:17;;;;;;;8.98;3.92;;;;;;;;;;5059223;28;20480;-58
2021/11/26 12:31:43;;;;;;;7.68;3.30;;;;;;;;;;5057006;28;20021;-53
2021/11/26 12:34:12;;;;;;;6.70;3.25;;;;;;;;;;5060515;28;20178;-58
2021/11/26 12:36:58;;;;;;;9.32;2.83;;;;;;;;;;5051485;28;20108;-58
2021/11/26 12:39:26;;;;;;;8.50;4.15;;;;;;;;;;5061277;28;20128;-57
2021/11/26 12:41:54;;;;;;;8.05;2.90;;;;;;;;;;5058710;28;20021;-57
2021/11/26 12:44:21;;;;;;;10.98;3.65;;;;;;;;;;5050863;28;20454;-55
2021/11/26 12:46:53;;;;;;;6.70;3.30;;;;;;;;;;5056947;28;20029;-57
2021/11/26 12:51:47;;;;;;;8.25;3.45;;;;;;;;;;5056496;28;20368;-56
2021/11/26 12:54:27;;;;;;;9.00;3.50;;;;;;;;;;5051541;28;20048;-54
2021/11/26 12:56:54;;;;;;;7.85;2.83;;;;;;;;;;5055288;28;20028;-55
2021/11/26 12:59:26;;;;;;;3.70;2.15;;;;;;;;;;5049450;28;20461;-57
2021/11/26 13:01:52;;;;;;;5.50;2.50;;;;;;;;;;5063222;28;20100;-57
2021/11/26 13:04:18;;;;;;;8.60;2.78;;;;;;;;;;5062074;28;20120;-55
2021/11/26 13:06:44;;;;;;;7.82;3.28;;;;;;;;;;5066043;28;20032;-54
2021/11/26 13:09:10;;;;;;;6.93;3.30;;;;;;;;;;5065684;28;20124;-56
2021/11/26 13:11:40;;;;;;;8.20;3.78;;;;;;;;;;5062870;28;20029;-55
2021/11/26 13:14:07;;;;;;;6.40;3.65;;;;;;;;;;5063791;28;20023;-55
2021/11/26 13:16:33;;;;;;;11.35;4.00;;;;;;;;;;5063744;28;20070;-54
2021/11/26 13:18:59;;;;;;;7.30;3.88;;;;;;;;;;5054221;28;20060;-52
2021/11/26 13:21:25;;;;;;;8.60;4.13;;;;;;;;;;5055270;28;20100;-54
2021/11/26 13:23:51;;;;;;;8.15;4.25;;;;;;;;;;5055991;28;20029;-52
2021/11/26 13:26:17;;;;;;;10.02;4.40;;;;;;;;;;5050612;28;20037;-52
2021/11/26 13:28:44;;;;;;;9.32;4.28;;;;;;;;;;5052702;28;20031;-53
2021/11/26 13:31:12;;;;;;;12.48;4.32;;;;;;;;;;5054678;28;20107;-51
2021/11/26 13:33:42;;;;;;;7.18;3.78;;;;;;;;;;5055394;28;20623;-51
2021/11/26 13:36:10;;;;;;;10.40;3.85;;;;;;;;;;5053735;28;20115;-52
2021/11/26 13:38:43;;;;;;;8.60;3.78;;;;;;;;;;5054684;28;20016;-51
2021/11/26 13:41:11;;;;;;;10.20;4.50;;;;;;;;;;5054001;28;20094;-53
2021/11/26 13:43:38;;;;;;;10.68;4.40;;;;;;;;;;5049087;28;20287;-57
2021/11/26 13:46:06;;;;;;;6.28;3.92;;;;;;;;;;5050405;28;20057;-55
2021/11/26 13:48:37;;;;;;;10.10;4.75;;;;;;;;;;5043060;28;20485;-57
2021/11/26 13:51:04;;;;;;;7.63;3.85;;;;;;;;;;5059354;28;20021;-54
2021/11/26 13:53:30;;;;;;;10.52;4.95;;;;;;;;;;5054583;28;20029;-52
2021/11/26 13:55:56;;;;;;;12.50;4.95;;;;;;;;;;5048640;28;20029;-55
2021/11/26 13:58:23;;;;;;;12.70;4.70;;;;;;;;;;5050804;28;20048;-56
2021/11/26 14:00:49;;;;;;;11.18;5.22;;;;;;;;;;5048454;28;20056;-54
2021/11/26 14:03:15;;;;;;;8.23;4.53;;;;;;;;;;5048367;28;20477;-56
2021/11/26 14:05:42;;;;;;;13.20;5.05;;;;;;;;;;5049431;28;20021;-56
2021/11/26 14:08:08;;;;;;;12.57;5.30;;;;;;;;;;5050443;28;20488;-55
2021/11/26 14:10:45;;;;;;;14.75;5.85;;;;;;;;;;5052552;28;20515;-52
2021/11/26 14:13:11;;;;;;;12.75;5.05;;;;;;;;;;5052376;28;20029;-51
2021/11/26 14:15:37;;;;;;;11.35;5.40;;;;;;;;;;5050624;28;20112;-50
2021/11/26 14:18:13;;;;;;;10.32;5.28;;;;;;;;;;5047898;28;20075;-55
2021/11/26 14:20:40;;;;;;;12.43;5.32;;;;;;;;;;5042574;28;20037;-53
2021/11/26 14:23:07;;;;;;;13.27;6.68;;;;;;;;;;5053145;28;20139;-55
2021/11/26 14:25:33;;;;;;;12.63;6.03;;;;;;;;;;5045565;28;20496;-52
2021/11/26 14:28:10;;;;;;;14.50;5.93;;;;;;;;;;5048689;28;20086;-55
2021/11/26 14:30:36;;;;;;;14.05;5.78;;;;;;;;;;5049325;28;20425;-54
2021/11/26 14:33:03;;;;;;;13.30;5.95;;;;;;;;;;5046779;28;20127;-55
2021/11/26 14:35:30;;;;;;;15.73;6.72;;;;;;;;;;5050079;28;20041;-53
2021/11/26 14:38:00;;;;;;;18.83;6.88;;;;;;;;;;5050973;28;20025;-53
2021/11/26 14:40:28;;;;;;;19.40;9.02;;;;;;;;;;5048376;28;20025;-51
2021/11/26 14:43:05;;;;;;;14.30;7.05;;;;;;;;;;5056391;28;20397;-56
2021/11/26 14:45:36;;;;;;;12.75;5.72;;;;;;;;;;5050953;28;20098;-55
2021/11/26 14:48:16;;;;;;;15.40;5.60;;;;;;;;;;5048054;28;20028;-56
2021/11/26 14:50:42;;;;;;;14.35;5.72;;;;;;;;;;5047937;28;20427;-56
2021/11/26 14:53:10;;;;;;;12.45;5.43;;;;;;;;;;5049264;28;20032;-54
2021/11/26 14:55:36;;;;;;;11.68;5.93;;;;;;;;;;5047282;28;20048;-56
2021/11/26 14:58:02;;;;;;;10.27;4.75;;;;;;;;;;5049383;28;20472;-56
2021/11/26 15:00:28;;;;;;;12.98;6.00;;;;;;;;;;5036881;28;20021;-51
2021/11/26 15:02:54;;;;;;;9.48;4.72;;;;;;;;;;5050303;28;20025;-56
2021/11/26 15:05:20;;;;;;;13.77;5.13;;;;;;;;;;5050303;28;20416;-53